sensor_id;sensor_type;location;lat;lon;timestamp;temperature;humidity
25440;DHT22;13365;52.208;5.488;2022-09-12T00:01:12;19.70;89.40
25440;DHT22;13365;52.208;5.488;2022-09-12T00:03:39;19.70;89.10
25440;DHT22;13365;52.208;5.488;2022-09-12T00:06:11;19.60;89.10
25440;DHT22;13365;52.208;5.488;2022-09-12T00:08:37;19.50;89.40
25440;DHT22;13365;52.208;5.488;2022-09-12T00:11:08;19.50;89.10
25440;DHT22;13365;52.208;5.488;2022-09-12T00:13:34;19.30;89.10
25440;DHT22;13365;52.208;5.488;2022-09-12T00:16:00;19.40;89.40
25440;DHT22;13365;52.208;5.488;2022-09-12T00:18:26;19.40;89.20
25440;DHT22;13365;52.208;5.488;2022-09-12T00:20:51;19.20;89.20
25440;DHT22;13365;52.208;5.488;2022-09-12T00:23:17;19.30;89.30
25440;DHT22;13365;52.208;5.488;2022-09-12T00:25:44;19.40;89.20
25440;DHT22;13365;52.208;5.488;2022-09-12T00:28:11;19.30;88.90
25440;DHT22;13365;52.208;5.488;2022-09-12T00:30:46;19.30;89.20
25440;DHT22;13365;52.208;5.488;2022-09-12T00:33:12;19.30;89.10
25440;DHT22;13365;52.208;5.488;2022-09-12T00:35:46;19.20;89.20
25440;DHT22;13365;52.208;5.488;2022-09-12T00:38:12;19.40;89.10
25440;DHT22;13365;52.208;5.488;2022-09-12T00:40:38;19.20;88.90
25440;DHT22;13365;52.208;5.488;2022-09-12T00:43:05;19.30;88.90
25440;DHT22;13365;52.208;5.488;2022-09-12T00:45:31;19.20;89.30
25440;DHT22;13365;52.208;5.488;2022-09-12T00:48:00;19.30;89.70
25440;DHT22;13365;52.208;5.488;2022-09-12T00:50:27;19.30;90.00
25440;DHT22;13365;52.208;5.488;2022-09-12T00:52:56;19.40;90.10
25440;DHT22;13365;52.208;5.488;2022-09-12T00:55:33;19.50;90.40
25440;DHT22;13365;52.208;5.488;2022-09-12T00:58:18;19.50;90.50
25440;DHT22;13365;52.208;5.488;2022-09-12T01:00:45;19.50;90.50
25440;DHT22;13365;52.208;5.488;2022-09-12T01:03:13;19.50;90.50
25440;DHT22;13365;52.208;5.488;2022-09-12T01:05:43;19.50;90.60
25440;DHT22;13365;52.208;5.488;2022-09-12T01:08:11;19.70;90.90
25440;DHT22;13365;52.208;5.488;2022-09-12T01:10:39;19.70;90.90
25440;DHT22;13365;52.208;5.488;2022-09-12T01:13:06;19.70;90.90
25440;DHT22;13365;52.208;5.488;2022-09-12T01:15:33;19.70;90.70
25440;DHT22;13365;52.208;5.488;2022-09-12T01:23:27;19.70;90.40
25440;DHT22;13365;52.208;5.488;2022-09-12T01:26:41;19.70;90.60
25440;DHT22;13365;52.208;5.488;2022-09-12T01:35:22;19.60;90.30
25440;DHT22;13365;52.208;5.488;2022-09-12T01:38:03;19.60;90.10
25440;DHT22;13365;52.208;5.488;2022-09-12T01:40:55;19.60;90.10
25440;DHT22;13365;52.208;5.488;2022-09-12T01:46:16;19.50;90.10
25440;DHT22;13365;52.208;5.488;2022-09-12T01:49:25;19.60;90.00
25440;DHT22;13365;52.208;5.488;2022-09-12T01:52:19;19.40;90.00
25440;DHT22;13365;52.208;5.488;2022-09-12T01:54:52;19.30;89.70
25440;DHT22;13365;52.208;5.488;2022-09-12T01:57:27;19.30;89.40
25440;DHT22;13365;52.208;5.488;2022-09-12T01:59:58;19.20;89.30
25440;DHT22;13365;52.208;5.488;2022-09-12T02:02:48;19.30;90.00
25440;DHT22;13365;52.208;5.488;2022-09-12T02:05:32;19.30;89.30
25440;DHT22;13365;52.208;5.488;2022-09-12T02:08:14;19.40;89.20
25440;DHT22;13365;52.208;5.488;2022-09-12T02:10:50;19.30;89.10
25440;DHT22;13365;52.208;5.488;2022-09-12T02:13:22;19.20;89.30
25440;DHT22;13365;52.208;5.488;2022-09-12T02:15:53;19.20;89.50
25440;DHT22;13365;52.208;5.488;2022-09-12T02:18:20;19.10;89.60
25440;DHT22;13365;52.208;5.488;2022-09-12T02:20:47;19.10;89.90
25440;DHT22;13365;52.208;5.488;2022-09-12T02:23:18;19.10;90.00
25440;DHT22;13365;52.208;5.488;2022-09-12T02:25:47;19.20;90.10
25440;DHT22;13365;52.208;5.488;2022-09-12T02:28:24;19.20;90.10
25440;DHT22;13365;52.208;5.488;2022-09-12T02:39:51;19.10;90.20
25440;DHT22;13365;52.208;5.488;2022-09-12T02:42:20;19.10;90.20
25440;DHT22;13365;52.208;5.488;2022-09-12T02:44:46;19.10;90.10
25440;DHT22;13365;52.208;5.488;2022-09-12T02:47:46;19.10;90.10
25440;DHT22;13365;52.208;5.488;2022-09-12T02:50:13;19.10;90.10
25440;DHT22;13365;52.208;5.488;2022-09-12T02:52:40;19.10;90.20
25440;DHT22;13365;52.208;5.488;2022-09-12T02:55:06;19.10;90.20
25440;DHT22;13365;52.208;5.488;2022-09-12T02:57:32;19.00;90.20
25440;DHT22;13365;52.208;5.488;2022-09-12T03:00:00;19.10;90.10
25440;DHT22;13365;52.208;5.488;2022-09-12T03:08:31;18.90;89.70
25440;DHT22;13365;52.208;5.488;2022-09-12T03:16:27;19.00;90.00
25440;DHT22;13365;52.208;5.488;2022-09-12T03:19:08;19.00;90.30
25440;DHT22;13365;52.208;5.488;2022-09-12T03:21:45;19.00;90.40
25440;DHT22;13365;52.208;5.488;2022-09-12T03:24:24;19.00;90.40
25440;DHT22;13365;52.208;5.488;2022-09-12T03:26:55;19.10;90.30
25440;DHT22;13365;52.208;5.488;2022-09-12T03:29:23;19.20;90.30
25440;DHT22;13365;52.208;5.488;2022-09-12T03:31:55;19.10;90.20
25440;DHT22;13365;52.208;5.488;2022-09-12T03:34:22;19.10;90.20
25440;DHT22;13365;52.208;5.488;2022-09-12T03:36:49;19.10;90.20
25440;DHT22;13365;52.208;5.488;2022-09-12T03:39:15;19.10;90.30
25440;DHT22;13365;52.208;5.488;2022-09-12T03:41:41;19.00;90.20
25440;DHT22;13365;52.208;5.488;2022-09-12T03:44:07;19.10;90.40
25440;DHT22;13365;52.208;5.488;2022-09-12T03:46:33;19.10;90.40
25440;DHT22;13365;52.208;5.488;2022-09-12T03:48:58;19.10;90.30
25440;DHT22;13365;52.208;5.488;2022-09-12T03:51:25;19.20;90.30
25440;DHT22;13365;52.208;5.488;2022-09-12T03:53:51;19.20;90.20
25440;DHT22;13365;52.208;5.488;2022-09-12T03:56:17;19.20;90.20
25440;DHT22;13365;52.208;5.488;2022-09-12T03:58:44;19.10;90.20
25440;DHT22;13365;52.208;5.488;2022-09-12T04:01:17;19.00;90.20
25440;DHT22;13365;52.208;5.488;2022-09-12T04:03:46;19.00;90.10
25440;DHT22;13365;52.208;5.488;2022-09-12T04:06:14;19.00;90.10
25440;DHT22;13365;52.208;5.488;2022-09-12T04:08:42;19.10;90.10
25440;DHT22;13365;52.208;5.488;2022-09-12T04:11:13;19.10;90.10
25440;DHT22;13365;52.208;5.488;2022-09-12T04:13:40;19.10;90.30
25440;DHT22;13365;52.208;5.488;2022-09-12T04:16:06;19.10;90.30
25440;DHT22;13365;52.208;5.488;2022-09-12T04:18:33;19.10;90.20
25440;DHT22;13365;52.208;5.488;2022-09-12T04:21:07;19.00;90.10
25440;DHT22;13365;52.208;5.488;2022-09-12T04:23:33;19.10;90.00
25440;DHT22;13365;52.208;5.488;2022-09-12T04:26:00;19.10;89.90
25440;DHT22;13365;52.208;5.488;2022-09-12T04:28:27;19.10;90.00
25440;DHT22;13365;52.208;5.488;2022-09-12T04:30:53;19.10;90.00
25440;DHT22;13365;52.208;5.488;2022-09-12T04:33:19;19.10;90.10
25440;DHT22;13365;52.208;5.488;2022-09-12T04:35:46;19.10;90.20
25440;DHT22;13365;52.208;5.488;2022-09-12T04:38:11;19.10;90.50
25440;DHT22;13365;52.208;5.488;2022-09-12T04:40:37;19.20;90.50
25440;DHT22;13365;52.208;5.488;2022-09-12T04:43:03;19.20;90.70
25440;DHT22;13365;52.208;5.488;2022-09-12T04:45:29;19.20;90.70
25440;DHT22;13365;52.208;5.488;2022-09-12T04:47:55;19.10;90.70
25440;DHT22;13365;52.208;5.488;2022-09-12T04:50:21;19.20;90.70
25440;DHT22;13365;52.208;5.488;2022-09-12T04:52:51;19.10;90.70
25440;DHT22;13365;52.208;5.488;2022-09-12T04:55:17;19.20;90.60
25440;DHT22;13365;52.208;5.488;2022-09-12T04:57:42;19.20;90.60
25440;DHT22;13365;52.208;5.488;2022-09-12T05:00:09;19.20;90.60
25440;DHT22;13365;52.208;5.488;2022-09-12T05:02:40;19.20;90.70
25440;DHT22;13365;52.208;5.488;2022-09-12T05:05:06;19.30;90.90
25440;DHT22;13365;52.208;5.488;2022-09-12T05:07:32;19.30;91.00
25440;DHT22;13365;52.208;5.488;2022-09-12T05:09:58;19.40;91.00
25440;DHT22;13365;52.208;5.488;2022-09-12T05:12:25;19.40;91.10
25440;DHT22;13365;52.208;5.488;2022-09-12T05:14:50;19.40;91.10
25440;DHT22;13365;52.208;5.488;2022-09-12T05:17:16;19.50;91.10
25440;DHT22;13365;52.208;5.488;2022-09-12T05:19:41;19.50;91.00
25440;DHT22;13365;52.208;5.488;2022-09-12T05:22:07;19.60;91.00
25440;DHT22;13365;52.208;5.488;2022-09-12T05:24:34;19.70;91.00
25440;DHT22;13365;52.208;5.488;2022-09-12T05:26:59;19.60;90.90
25440;DHT22;13365;52.208;5.488;2022-09-12T05:29:26;19.60;90.90
25440;DHT22;13365;52.208;5.488;2022-09-12T05:31:52;19.70;90.80
25440;DHT22;13365;52.208;5.488;2022-09-12T05:34:18;19.80;90.90
25440;DHT22;13365;52.208;5.488;2022-09-12T05:36:44;19.80;90.90
25440;DHT22;13365;52.208;5.488;2022-09-12T05:39:10;19.80;91.00
25440;DHT22;13365;52.208;5.488;2022-09-12T05:41:35;19.90;91.10
25440;DHT22;13365;52.208;5.488;2022-09-12T05:44:03;20.00;91.10
25440;DHT22;13365;52.208;5.488;2022-09-12T05:46:31;20.00;91.10
25440;DHT22;13365;52.208;5.488;2022-09-12T05:49:06;20.00;91.10
25440;DHT22;13365;52.208;5.488;2022-09-12T05:51:35;20.00;91.10
25440;DHT22;13365;52.208;5.488;2022-09-12T05:54:04;20.00;91.10
25440;DHT22;13365;52.208;5.488;2022-09-12T05:56:32;20.10;91.10
25440;DHT22;13365;52.208;5.488;2022-09-12T05:59:00;20.00;91.10
25440;DHT22;13365;52.208;5.488;2022-09-12T06:01:27;20.10;91.00
25440;DHT22;13365;52.208;5.488;2022-09-12T06:03:55;20.10;91.00
25440;DHT22;13365;52.208;5.488;2022-09-12T06:06:23;20.20;90.90
25440;DHT22;13365;52.208;5.488;2022-09-12T06:08:51;20.20;90.80
25440;DHT22;13365;52.208;5.488;2022-09-12T06:11:21;20.20;90.80
25440;DHT22;13365;52.208;5.488;2022-09-12T06:13:54;20.20;90.80
25440;DHT22;13365;52.208;5.488;2022-09-12T06:16:24;20.20;90.80
25440;DHT22;13365;52.208;5.488;2022-09-12T06:18:55;20.20;90.90
25440;DHT22;13365;52.208;5.488;2022-09-12T06:21:22;20.20;91.00
25440;DHT22;13365;52.208;5.488;2022-09-12T06:23:56;20.20;91.20
25440;DHT22;13365;52.208;5.488;2022-09-12T06:26:23;20.20;91.20
25440;DHT22;13365;52.208;5.488;2022-09-12T06:28:51;20.20;91.40
25440;DHT22;13365;52.208;5.488;2022-09-12T06:31:19;20.20;91.50
25440;DHT22;13365;52.208;5.488;2022-09-12T06:33:47;20.10;91.50
25440;DHT22;13365;52.208;5.488;2022-09-12T06:36:19;20.20;91.50
25440;DHT22;13365;52.208;5.488;2022-09-12T06:38:45;20.30;91.40
25440;DHT22;13365;52.208;5.488;2022-09-12T06:41:12;20.30;91.40
25440;DHT22;13365;52.208;5.488;2022-09-12T06:43:38;20.40;91.40
25440;DHT22;13365;52.208;5.488;2022-09-12T06:46:04;20.30;91.40
25440;DHT22;13365;52.208;5.488;2022-09-12T06:48:30;20.40;91.40
25440;DHT22;13365;52.208;5.488;2022-09-12T06:51:01;20.40;91.50
25440;DHT22;13365;52.208;5.488;2022-09-12T06:53:28;20.50;91.50
25440;DHT22;13365;52.208;5.488;2022-09-12T06:55:59;20.50;91.60
25440;DHT22;13365;52.208;5.488;2022-09-12T06:58:28;20.50;91.60
25440;DHT22;13365;52.208;5.488;2022-09-12T07:01:21;20.50;91.70
25440;DHT22;13365;52.208;5.488;2022-09-12T07:03:49;20.50;91.90
25440;DHT22;13365;52.208;5.488;2022-09-12T07:06:17;20.40;92.10
25440;DHT22;13365;52.208;5.488;2022-09-12T07:08:42;20.60;92.40
25440;DHT22;13365;52.208;5.488;2022-09-12T07:11:19;20.60;92.30
25440;DHT22;13365;52.208;5.488;2022-09-12T07:13:50;20.50;92.70
25440;DHT22;13365;52.208;5.488;2022-09-12T07:16:17;20.50;93.10
25440;DHT22;13365;52.208;5.488;2022-09-12T07:18:43;20.50;93.20
25440;DHT22;13365;52.208;5.488;2022-09-12T07:21:12;20.70;93.20
25440;DHT22;13365;52.208;5.488;2022-09-12T07:23:40;20.80;93.30
25440;DHT22;13365;52.208;5.488;2022-09-12T07:26:09;20.90;93.40
25440;DHT22;13365;52.208;5.488;2022-09-12T07:28:35;21.00;93.40
25440;DHT22;13365;52.208;5.488;2022-09-12T07:31:09;21.20;93.10
25440;DHT22;13365;52.208;5.488;2022-09-12T07:33:36;21.30;92.70
25440;DHT22;13365;52.208;5.488;2022-09-12T07:36:03;21.50;92.90
25440;DHT22;13365;52.208;5.488;2022-09-12T07:38:29;21.70;93.00
25440;DHT22;13365;52.208;5.488;2022-09-12T07:40:55;21.80;93.00
25440;DHT22;13365;52.208;5.488;2022-09-12T07:43:21;22.00;92.40
25440;DHT22;13365;52.208;5.488;2022-09-12T07:45:47;22.00;92.10
25440;DHT22;13365;52.208;5.488;2022-09-12T07:48:13;22.10;92.30
25440;DHT22;13365;52.208;5.488;2022-09-12T07:50:38;22.40;92.30
25440;DHT22;13365;52.208;5.488;2022-09-12T07:53:04;22.50;92.00
25440;DHT22;13365;52.208;5.488;2022-09-12T07:55:30;22.70;92.10
25440;DHT22;13365;52.208;5.488;2022-09-12T07:57:56;22.80;91.50
25440;DHT22;13365;52.208;5.488;2022-09-12T08:00:22;23.10;91.20
25440;DHT22;13365;52.208;5.488;2022-09-12T08:02:52;23.20;90.60
25440;DHT22;13365;52.208;5.488;2022-09-12T08:05:18;23.30;90.50
25440;DHT22;13365;52.208;5.488;2022-09-12T08:07:45;23.50;90.70
25440;DHT22;13365;52.208;5.488;2022-09-12T08:10:11;23.70;90.50
25440;DHT22;13365;52.208;5.488;2022-09-12T08:12:37;24.00;90.00
25440;DHT22;13365;52.208;5.488;2022-09-12T08:15:03;23.90;90.30
25440;DHT22;13365;52.208;5.488;2022-09-12T08:17:31;24.10;90.20
25440;DHT22;13365;52.208;5.488;2022-09-12T08:19:56;24.40;90.10
25440;DHT22;13365;52.208;5.488;2022-09-12T08:22:22;24.60;89.30
25440;DHT22;13365;52.208;5.488;2022-09-12T08:24:48;24.80;87.90
25440;DHT22;13365;52.208;5.488;2022-09-12T08:27:14;25.00;88.00
25440;DHT22;13365;52.208;5.488;2022-09-12T08:29:40;25.20;87.80
25440;DHT22;13365;52.208;5.488;2022-09-12T08:32:06;25.50;88.00
25440;DHT22;13365;52.208;5.488;2022-09-12T08:34:32;25.70;86.80
25440;DHT22;13365;52.208;5.488;2022-09-12T08:36:58;25.90;84.90
25440;DHT22;13365;52.208;5.488;2022-09-12T08:39:23;26.00;84.20
25440;DHT22;13365;52.208;5.488;2022-09-12T08:42:04;26.10;83.90
25440;DHT22;13365;52.208;5.488;2022-09-12T08:47:32;26.60;83.00
25440;DHT22;13365;52.208;5.488;2022-09-12T08:55:25;27.00;83.20
25440;DHT22;13365;52.208;5.488;2022-09-12T08:57:54;27.20;82.50
25440;DHT22;13365;52.208;5.488;2022-09-12T09:00:21;27.30;82.00
25440;DHT22;13365;52.208;5.488;2022-09-12T09:03:04;27.60;80.20
25440;DHT22;13365;52.208;5.488;2022-09-12T09:14:14;28.10;79.80
25440;DHT22;13365;52.208;5.488;2022-09-12T09:17:02;28.30;78.00
25440;DHT22;13365;52.208;5.488;2022-09-12T09:19:43;28.20;78.40
25440;DHT22;13365;52.208;5.488;2022-09-12T09:22:26;28.20;76.30
25440;DHT22;13365;52.208;5.488;2022-09-12T09:25:00;28.20;77.70
25440;DHT22;13365;52.208;5.488;2022-09-12T09:29:56;28.20;77.80
25440;DHT22;13365;52.208;5.488;2022-09-12T09:32:40;28.20;77.80
25440;DHT22;13365;52.208;5.488;2022-09-12T09:38:43;28.40;77.40
25440;DHT22;13365;52.208;5.488;2022-09-12T09:43:55;28.60;75.10
25440;DHT22;13365;52.208;5.488;2022-09-12T09:46:22;28.70;78.00
25440;DHT22;13365;52.208;5.488;2022-09-12T09:48:49;28.80;76.40
25440;DHT22;13365;52.208;5.488;2022-09-12T09:51:35;28.90;75.00
25440;DHT22;13365;52.208;5.488;2022-09-12T09:56:43;29.30;75.80
25440;DHT22;13365;52.208;5.488;2022-09-12T10:01:54;29.40;74.10
25440;DHT22;13365;52.208;5.488;2022-09-12T10:04:23;29.50;72.70
25440;DHT22;13365;52.208;5.488;2022-09-12T10:06:53;29.20;73.40
25440;DHT22;13365;52.208;5.488;2022-09-12T10:09:24;29.10;71.60
25440;DHT22;13365;52.208;5.488;2022-09-12T10:11:50;29.00;75.70
25440;DHT22;13365;52.208;5.488;2022-09-12T10:14:56;29.10;73.80
25440;DHT22;13365;52.208;5.488;2022-09-12T10:19:54;29.50;73.90
25440;DHT22;13365;52.208;5.488;2022-09-12T10:22:23;29.60;72.00
25440;DHT22;13365;52.208;5.488;2022-09-12T10:24:54;29.60;73.70
25440;DHT22;13365;52.208;5.488;2022-09-12T10:27:30;29.50;70.90
25440;DHT22;13365;52.208;5.488;2022-09-12T10:30:15;29.30;71.20
25440;DHT22;13365;52.208;5.488;2022-09-12T10:32:44;29.40;70.80
25440;DHT22;13365;52.208;5.488;2022-09-12T10:35:20;29.60;73.20
25440;DHT22;13365;52.208;5.488;2022-09-12T10:37:57;29.60;70.90
25440;DHT22;13365;52.208;5.488;2022-09-12T10:40:27;29.50;71.90
25440;DHT22;13365;52.208;5.488;2022-09-12T10:42:58;29.60;70.20
25440;DHT22;13365;52.208;5.488;2022-09-12T10:47:52;29.60;71.20
25440;DHT22;13365;52.208;5.488;2022-09-12T10:50:38;29.60;70.20
25440;DHT22;13365;52.208;5.488;2022-09-12T10:53:41;29.50;69.70
25440;DHT22;13365;52.208;5.488;2022-09-12T10:56:09;29.40;69.80
25440;DHT22;13365;52.208;5.488;2022-09-12T11:07:01;29.50;70.40
25440;DHT22;13365;52.208;5.488;2022-09-12T11:15:15;29.70;68.10
25440;DHT22;13365;52.208;5.488;2022-09-12T11:17:55;29.80;71.30
25440;DHT22;13365;52.208;5.488;2022-09-12T11:26:31;30.20;69.50
25440;DHT22;13365;52.208;5.488;2022-09-12T11:32:07;30.10;68.00
25440;DHT22;13365;52.208;5.488;2022-09-12T11:37:27;29.80;68.30
25440;DHT22;13365;52.208;5.488;2022-09-12T11:40:24;30.10;68.70
25440;DHT22;13365;52.208;5.488;2022-09-12T11:42:49;30.10;68.90
25440;DHT22;13365;52.208;5.488;2022-09-12T11:45:50;30.30;70.40
25440;DHT22;13365;52.208;5.488;2022-09-12T11:48:53;30.60;68.60
25440;DHT22;13365;52.208;5.488;2022-09-12T11:51:56;30.50;68.40
25440;DHT22;13365;52.208;5.488;2022-09-12T11:54:43;30.80;66.20
25440;DHT22;13365;52.208;5.488;2022-09-12T11:57:37;30.70;65.10
25440;DHT22;13365;52.208;5.488;2022-09-12T12:02:40;30.70;66.70
25440;DHT22;13365;52.208;5.488;2022-09-12T12:05:19;30.50;64.20
25440;DHT22;13365;52.208;5.488;2022-09-12T12:07:55;30.50;65.20
25440;DHT22;13365;52.208;5.488;2022-09-12T12:10:43;30.60;65.70
25440;DHT22;13365;52.208;5.488;2022-09-12T12:13:20;30.70;64.20
25440;DHT22;13365;52.208;5.488;2022-09-12T12:15:59;30.80;64.90
25440;DHT22;13365;52.208;5.488;2022-09-12T12:18:28;30.80;64.80
25440;DHT22;13365;52.208;5.488;2022-09-12T12:20:55;30.80;64.10
25440;DHT22;13365;52.208;5.488;2022-09-12T12:23:28;30.80;65.30
25440;DHT22;13365;52.208;5.488;2022-09-12T12:25:58;30.80;62.90
25440;DHT22;13365;52.208;5.488;2022-09-12T12:31:15;31.00;64.10
25440;DHT22;13365;52.208;5.488;2022-09-12T12:36:29;30.50;63.90
25440;DHT22;13365;52.208;5.488;2022-09-12T12:38:55;30.30;62.00
25440;DHT22;13365;52.208;5.488;2022-09-12T12:43:54;30.20;64.30
25440;DHT22;13365;52.208;5.488;2022-09-12T12:46:26;30.10;66.30
25440;DHT22;13365;52.208;5.488;2022-09-12T12:49:18;30.20;66.60
25440;DHT22;13365;52.208;5.488;2022-09-12T12:51:59;30.50;62.30
25440;DHT22;13365;52.208;5.488;2022-09-12T12:57:24;30.50;63.20
25440;DHT22;13365;52.208;5.488;2022-09-12T13:00:07;30.50;62.70
25440;DHT22;13365;52.208;5.488;2022-09-12T13:02:56;30.60;63.20
25440;DHT22;13365;52.208;5.488;2022-09-12T13:05:25;30.60;63.10
25440;DHT22;13365;52.208;5.488;2022-09-12T13:07:57;30.40;62.40
25440;DHT22;13365;52.208;5.488;2022-09-12T13:10:27;30.50;63.20
25440;DHT22;13365;52.208;5.488;2022-09-12T13:12:56;30.60;62.20
25440;DHT22;13365;52.208;5.488;2022-09-12T13:18:18;30.20;61.90
25440;DHT22;13365;52.208;5.488;2022-09-12T13:21:27;29.90;63.80
25440;DHT22;13365;52.208;5.488;2022-09-12T13:24:10;29.70;64.20
25440;DHT22;13365;52.208;5.488;2022-09-12T13:26:43;29.60;64.10
25440;DHT22;13365;52.208;5.488;2022-09-12T13:29:19;29.50;64.40
25440;DHT22;13365;52.208;5.488;2022-09-12T13:31:57;29.40;63.70
25440;DHT22;13365;52.208;5.488;2022-09-12T13:34:35;29.10;64.10
25440;DHT22;13365;52.208;5.488;2022-09-12T13:40:52;28.80;65.10
25440;DHT22;13365;52.208;5.488;2022-09-12T13:43:42;29.00;64.10
25440;DHT22;13365;52.208;5.488;2022-09-12T13:46:11;29.30;63.50
25440;DHT22;13365;52.208;5.488;2022-09-12T13:48:41;29.20;63.40
25440;DHT22;13365;52.208;5.488;2022-09-12T13:51:25;29.30;64.00
25440;DHT22;13365;52.208;5.488;2022-09-12T13:53:55;29.30;62.40
25440;DHT22;13365;52.208;5.488;2022-09-12T13:56:22;29.20;62.00
25440;DHT22;13365;52.208;5.488;2022-09-12T13:59:10;28.90;63.50
25440;DHT22;13365;52.208;5.488;2022-09-12T14:01:43;29.10;63.50
25440;DHT22;13365;52.208;5.488;2022-09-12T14:04:25;29.30;63.60
25440;DHT22;13365;52.208;5.488;2022-09-12T14:07:14;29.50;64.90
25440;DHT22;13365;52.208;5.488;2022-09-12T14:09:43;29.20;63.10
25440;DHT22;13365;52.208;5.488;2022-09-12T14:12:39;29.10;63.50
25440;DHT22;13365;52.208;5.488;2022-09-12T14:15:19;29.00;64.60
25440;DHT22;13365;52.208;5.488;2022-09-12T14:17:53;29.10;63.80
25440;DHT22;13365;52.208;5.488;2022-09-12T14:20:21;29.20;64.30
25440;DHT22;13365;52.208;5.488;2022-09-12T14:22:49;29.00;63.20
25440;DHT22;13365;52.208;5.488;2022-09-12T14:25:18;28.90;63.70
25440;DHT22;13365;52.208;5.488;2022-09-12T14:27:49;29.10;66.00
25440;DHT22;13365;52.208;5.488;2022-09-12T14:30:32;29.30;64.20
25440;DHT22;13365;52.208;5.488;2022-09-12T14:33:18;29.40;63.10
25440;DHT22;13365;52.208;5.488;2022-09-12T14:36:38;29.40;63.40
25440;DHT22;13365;52.208;5.488;2022-09-12T14:38:47;29.50;63.40
25440;DHT22;13365;52.208;5.488;2022-09-12T14:41:22;29.60;63.10
25440;DHT22;13365;52.208;5.488;2022-09-12T14:43:52;29.70;62.60
25440;DHT22;13365;52.208;5.488;2022-09-12T14:46:43;29.60;62.50
25440;DHT22;13365;52.208;5.488;2022-09-12T14:49:20;29.70;64.30
25440;DHT22;13365;52.208;5.488;2022-09-12T14:51:56;29.80;63.60
25440;DHT22;13365;52.208;5.488;2022-09-12T14:54:34;29.80;62.30
25440;DHT22;13365;52.208;5.488;2022-09-12T14:57:37;29.90;62.90
25440;DHT22;13365;52.208;5.488;2022-09-12T15:00:19;30.00;62.20
25440;DHT22;13365;52.208;5.488;2022-09-12T15:02:47;30.00;62.30
25440;DHT22;13365;52.208;5.488;2022-09-12T15:05:22;30.10;61.70
25440;DHT22;13365;52.208;5.488;2022-09-12T15:07:59;30.00;61.10
25440;DHT22;13365;52.208;5.488;2022-09-12T15:10:30;30.10;60.70
25440;DHT22;13365;52.208;5.488;2022-09-12T15:13:12;30.10;61.40
25440;DHT22;13365;52.208;5.488;2022-09-12T15:15:47;29.90;61.00
25440;DHT22;13365;52.208;5.488;2022-09-12T15:18:13;29.60;61.40
25440;DHT22;13365;52.208;5.488;2022-09-12T15:20:41;29.60;61.50
25440;DHT22;13365;52.208;5.488;2022-09-12T15:23:16;29.80;62.10
25440;DHT22;13365;52.208;5.488;2022-09-12T15:25:44;29.70;61.00
25440;DHT22;13365;52.208;5.488;2022-09-12T15:28:20;29.70;61.60
25440;DHT22;13365;52.208;5.488;2022-09-12T15:30:47;29.60;62.70
25440;DHT22;13365;52.208;5.488;2022-09-12T15:33:22;29.70;62.80
25440;DHT22;13365;52.208;5.488;2022-09-12T15:35:49;29.90;63.60
25440;DHT22;13365;52.208;5.488;2022-09-12T15:38:15;29.90;63.10
25440;DHT22;13365;52.208;5.488;2022-09-12T15:40:41;30.00;62.60
25440;DHT22;13365;52.208;5.488;2022-09-12T15:43:06;30.10;61.30
25440;DHT22;13365;52.208;5.488;2022-09-12T15:45:34;30.30;61.50
25440;DHT22;13365;52.208;5.488;2022-09-12T15:48:00;30.50;61.20
25440;DHT22;13365;52.208;5.488;2022-09-12T15:50:27;30.50;60.50
25440;DHT22;13365;52.208;5.488;2022-09-12T15:52:53;30.60;60.50
25440;DHT22;13365;52.208;5.488;2022-09-12T15:55:23;30.50;61.90
25440;DHT22;13365;52.208;5.488;2022-09-12T15:57:49;30.50;61.60
25440;DHT22;13365;52.208;5.488;2022-09-12T16:00:16;30.70;61.50
25440;DHT22;13365;52.208;5.488;2022-09-12T16:02:43;31.30;60.40
25440;DHT22;13365;52.208;5.488;2022-09-12T16:05:18;31.80;58.60
25440;DHT22;13365;52.208;5.488;2022-09-12T16:07:44;32.20;57.80
25440;DHT22;13365;52.208;5.488;2022-09-12T16:10:17;32.20;57.50
25440;DHT22;13365;52.208;5.488;2022-09-12T16:12:43;32.10;57.60
25440;DHT22;13365;52.208;5.488;2022-09-12T16:15:16;32.00;57.70
25440;DHT22;13365;52.208;5.488;2022-09-12T16:17:43;31.70;57.90
25440;DHT22;13365;52.208;5.488;2022-09-12T16:20:09;31.70;58.50
25440;DHT22;13365;52.208;5.488;2022-09-12T16:22:35;31.90;57.70
25440;DHT22;13365;52.208;5.488;2022-09-12T16:25:01;32.10;56.60
25440;DHT22;13365;52.208;5.488;2022-09-12T16:27:26;32.30;56.00
25440;DHT22;13365;52.208;5.488;2022-09-12T16:29:53;32.40;56.30
25440;DHT22;13365;52.208;5.488;2022-09-12T16:32:18;32.60;56.00
25440;DHT22;13365;52.208;5.488;2022-09-12T16:34:44;32.40;56.10
25440;DHT22;13365;52.208;5.488;2022-09-12T16:37:10;32.20;56.00
25440;DHT22;13365;52.208;5.488;2022-09-12T16:39:35;31.90;56.60
25440;DHT22;13365;52.208;5.488;2022-09-12T16:42:01;31.60;57.80
25440;DHT22;13365;52.208;5.488;2022-09-12T16:44:27;31.30;58.50
25440;DHT22;13365;52.208;5.488;2022-09-12T16:46:52;30.90;59.10
25440;DHT22;13365;52.208;5.488;2022-09-12T16:49:18;30.70;59.90
25440;DHT22;13365;52.208;5.488;2022-09-12T16:51:44;30.40;60.70
25440;DHT22;13365;52.208;5.488;2022-09-12T16:54:15;30.10;61.60
25440;DHT22;13365;52.208;5.488;2022-09-12T16:56:41;29.80;62.60
25440;DHT22;13365;52.208;5.488;2022-09-12T16:59:08;29.70;63.00
25440;DHT22;13365;52.208;5.488;2022-09-12T17:01:40;29.40;60.80
25440;DHT22;13365;52.208;5.488;2022-09-12T17:04:06;29.10;61.90
25440;DHT22;13365;52.208;5.488;2022-09-12T17:06:34;29.10;62.10
25440;DHT22;13365;52.208;5.488;2022-09-12T17:09:00;29.00;61.80
25440;DHT22;13365;52.208;5.488;2022-09-12T17:11:30;28.80;62.50
25440;DHT22;13365;52.208;5.488;2022-09-12T17:13:59;28.80;62.40
25440;DHT22;13365;52.208;5.488;2022-09-12T17:16:25;28.80;61.90
25440;DHT22;13365;52.208;5.488;2022-09-12T17:18:52;28.90;62.70
25440;DHT22;13365;52.208;5.488;2022-09-12T17:21:18;28.70;62.90
25440;DHT22;13365;52.208;5.488;2022-09-12T17:23:44;28.60;62.20
25440;DHT22;13365;52.208;5.488;2022-09-12T17:26:10;28.60;62.70
25440;DHT22;13365;52.208;5.488;2022-09-12T17:28:37;28.60;62.40
25440;DHT22;13365;52.208;5.488;2022-09-12T17:31:05;28.60;62.80
25440;DHT22;13365;52.208;5.488;2022-09-12T17:33:31;28.50;63.10
25440;DHT22;13365;52.208;5.488;2022-09-12T17:36:04;28.40;63.90
25440;DHT22;13365;52.208;5.488;2022-09-12T17:38:31;28.40;65.30
25440;DHT22;13365;52.208;5.488;2022-09-12T17:41:07;28.40;65.30
25440;DHT22;13365;52.208;5.488;2022-09-12T17:43:34;28.30;65.50
25440;DHT22;13365;52.208;5.488;2022-09-12T17:46:03;28.00;66.50
25440;DHT22;13365;52.208;5.488;2022-09-12T17:48:30;28.00;67.10
25440;DHT22;13365;52.208;5.488;2022-09-12T17:50:55;28.00;68.20
25440;DHT22;13365;52.208;5.488;2022-09-12T17:53:21;27.90;68.10